• Join FlightAware (Why Join?)
  • Login
  • US Flag 
02:04AM EDT


 

Airport Tracker/Info


-or-


 

Live Flight TrackerFlight Track Log ✈ N902NN ✈ 09-May-2013 ✈ KBOS - KORD

Flight Track Log - Related Links

Times and Time Zones

All times are in EDT time to prevent confusion due to time zone crossing. See the N902NN flight status page for this flight to view local times or setup timezone preferences in your user account.

Time Position Orientation Groundspeed Altitude Reporting Facility
EDT Latitude Longitude Course Direction KTS MPH feet Rate Location/Type
07:10PM 42.4890 -70.7840 308° West 307 353 8,200  Level FlightAware
07:11PM 42.6016 -70.8777 308° West  Level FlightAware Approximate
07:11PM 42.5230 -70.8190 323° Northwest 307 353 9,500  Level FlightAware
07:12PM 42.5630 -70.8890 308° West 324 373 11,500 2,640 Climbing FlightAware
07:12PM 42.6020 -70.9560 308° West 345 397 13,300 1,860 Climbing FlightAware
07:13PM 42.6420 -71.0270 307° West 352 405 14,000 480 Climbing FlightAware
07:14PM 42.6870 -71.1070 307° West 349 402 14,000  Level FlightAware
07:14PM 42.7250 -71.1760 307° West 344 396 14,000 840 Level FlightAware
07:15PM 42.7690 -71.2570 307° West 353 406 15,200 1,620 Climbing FlightAware
07:16PM 42.7880 -71.3430 287° West 372 428 16,300 1,740 Climbing FlightAware
07:17PM 42.7980 -71.4510 277° West 392 451 17,700 1,920 Climbing FlightAware
07:17PM 42.8070 -71.5370 278° West 402 463 18,900 2,100 Climbing FlightAware
07:18PM 42.8180 -71.6590 277° West 414 476 20,500 1,920 Climbing FlightAware
07:19PM 42.8280 -71.7650 277° West 426 490 21,700 1,800 Climbing FlightAware
07:19PM 42.8400 -71.8890 278° West 436 502 23,100 1,740 Climbing FlightAware
07:20PM 42.8500 -71.9990 277° West 442 509 24,200 1,500 Climbing FlightAware
07:21PM 42.8610 -72.1190 277° West 450 518 25,300 1,440 Climbing FlightAware
07:21PM 42.8720 -72.2330 278° West 455 524 26,300 1,560 Climbing FlightAware
07:22PM 42.8820 -72.3470 277° West 458 527 27,400 1,500 Climbing FlightAware
07:23PM 42.8930 -72.4770 277° West 460 529 28,500 1,500 Climbing FlightAware
07:24PM 42.9040 -72.5930 277° West 459 528 29,600 1,440 Climbing FlightAware
07:24PM 42.9150 -72.7210 277° West 461 531 30,600 720 Climbing FlightAware
07:25PM 42.9220 -72.8120 276° West 461 531 30,600 1,680 Level FlightAware
07:26PM 42.9320 -72.9320 277° West 448 516 32,700 1,440 Climbing FlightAware
07:26PM 42.9410 -73.0420 276° West 448 516 32,700  Level FlightAware
07:27PM 42.9480 -73.1380 276° West 448 516 32,700 1,800 Level FlightAware
07:28PM 42.9620 -73.2910 277° West 442 509 35,300 2,160 Climbing FlightAware
07:28PM 42.9720 -73.4160 276° West 442 509 36,000 420 Climbing FlightAware
07:29PM 42.9830 -73.5600 276° West 449 517 36,000  Level FlightAware
07:30PM 42.9910 -73.6560 277° West 449 517 36,000  Level FlightAware
07:31PM 42.9980 -73.7520 276° West 449 517 36,000  Level FlightAware
07:32PM 43.0140 -73.9490 276° West 449 517 36,000  Level FlightAware
07:32PM 43.0250 -74.1000 276° West 448 516 36,000  Level FlightAware
07:33PM 43.0330 -74.2080 276° West 446 513 36,000  Level FlightAware
07:34PM 43.0410 -74.3300 275° West 446 513 36,000  Level FlightAware
07:35PM 43.0490 -74.4420 276° West 445 512 36,000  Level FlightAware
07:35PM 43.0580 -74.5630 276° West 445 512 36,000  Level FlightAware
07:36PM 43.0660 -74.6790 275° West 446 513 36,000  Level FlightAware
07:37PM 43.0730 -74.7790 276° West 447 514 36,000  Level FlightAware
07:37PM 43.0820 -74.9190 275° West 448 516 36,000  Level FlightAware
07:38PM 43.0900 -75.0360 275° West 448 516 36,000  Level FlightAware
07:39PM 43.0980 -75.1580 275° West 449 517 36,000  Level FlightAware
07:39PM 43.1050 -75.2760 275° West 449 517 36,000  Level FlightAware
07:40PM 43.1120 -75.3820 275° West 450 518 36,000  Level FlightAware
07:41PM 43.1200 -75.5060 275° West 450 518 36,000  Level FlightAware
07:41PM 43.1260 -75.6090 275° West 444 511 36,000  Level FlightAware
07:42PM 43.1350 -75.7510 275° West 441 507 36,000  Level FlightAware
07:43PM 43.1410 -75.8630 274° West 439 505 36,000  Level FlightAware
07:44PM 43.1470 -75.9720 274° West 438 504 36,000  Level FlightAware
07:44PM 43.1540 -76.0920 275° West 437 503 36,000  Level FlightAware
07:45PM 43.1600 -76.2060 274° West 435 501 36,000  Level FlightAware
07:46PM 43.1610 -76.3270 271° West 436 502 36,000  Level FlightAware
07:46PM 43.1600 -76.4370 269° West 435 501 36,000  Level FlightAware
07:47PM 43.1600 -76.5500 270° West 434 499 36,000  Level FlightAware
07:48PM 43.1600 -76.6750 270° West 433 498 36,000  Level FlightAware
07:49PM 43.1600 -76.7780 270° West 432 497 36,000  Level FlightAware
07:49PM 43.1590 -76.8850 269° West 432 497 36,000  Level FlightAware
07:50PM 43.1580 -77.0010 269° West 432 497 36,000  Level FlightAware
07:51PM 43.1570 -77.1250 269° West 433 498 36,000  Level FlightAware
07:51PM 43.1560 -77.2480 269° West 434 499 36,000  Level FlightAware
07:52PM 43.1560 -77.3560 270° West 435 501 36,000  Level FlightAware
07:53PM 43.1550 -77.4810 269° West 434 499 36,000  Level FlightAware
07:53PM 43.1530 -77.5920 269° West 433 498 36,000  Level FlightAware
07:54PM 43.1520 -77.6990 269° West 431 496 36,000  Level FlightAware
07:55PM 43.1500 -77.8180 269° West 427 491 36,000  Level FlightAware
07:56PM 43.1490 -77.9270 269° West 426 490 36,000  Level FlightAware
07:56PM 43.1470 -78.0480 269° West 424 488 36,000  Level FlightAware
07:57PM 43.1450 -78.1550 269° West 418 481 36,000  Level FlightAware
07:58PM 43.1440 -78.2590 269° West 416 479 36,000  Level FlightAware
07:58PM 43.1420 -78.3790 269° West 414 476 36,000  Level FlightAware
07:59PM 43.1390 -78.4820 268° West 413 475 36,000  Level FlightAware
08:00PM 43.1360 -78.6010 268° West 411 473 36,000  Level FlightAware
08:00PM 43.1330 -78.7010 268° West 409 471 36,000  Level FlightAware
08:01PM 43.1300 -78.8200 268° West 407 468 36,000  Level FlightAware
08:02PM 43.1260 -78.9240 267° West 406 467 36,000  Level FlightAware
08:02PM 43.1200 -78.9990 264° West 413 475 36,000  Level FlightAware
08:03PM 43.0940 -79.0960 250° West 410 472 36,000  Level FlightAware
08:04PM 43.0880 -79.1990 265° West 399 459 36,000  Level FlightAware
08:04PM 43.0860 -79.3120 269° West 397 457 36,000  Level FlightAware
08:05PM 43.0850 -79.4070 269° West 397 457 36,000  Level FlightAware
08:06PM 43.0820 -79.5260 268° West 401 461 36,000  Level FlightAware
08:06PM 43.0810 -79.6090 269° West 401 461 36,000  Level FlightAware
08:07PM 43.0780 -79.7240 268° West 401 461 36,000  Level FlightAware
08:08PM 43.0760 -79.8380 269° West 403 464 36,000  Level FlightAware
08:09PM 43.0730 -79.9400 268° West 404 465 36,000  Level FlightAware
08:09PM 43.0710 -80.0420 268° West 405 466 36,000  Level FlightAware
08:10PM 43.0680 -80.1590 268° West 408 470 36,000  Level FlightAware
08:11PM 43.0650 -80.2780 268° West 410 472 36,000  Level FlightAware
08:11PM 43.0620 -80.3670 267° West 410 472 36,000  Level FlightAware
08:12PM 43.0590 -80.4820 268° West 407 468 36,000  Level FlightAware
08:13PM 43.0560 -80.5950 268° West 395 455 36,000  Level FlightAware
08:13PM 43.0530 -80.6820 267° West 392 451 36,000  Level FlightAware
08:14PM 43.0490 -80.8060 268° West 391 450 36,000  Level FlightAware
08:15PM 43.0460 -80.8990 268° West 390 449 36,000  Level FlightAware
08:16PM 43.0430 -81.0030 268° West 389 448 36,000  Level FlightAware
08:16PM 43.0390 -81.1140 267° West 387 445 36,000  Level FlightAware
08:17PM 43.0370 -81.2060 268° West 388 447 36,000  Level FlightAware
08:18PM 43.0350 -81.3200 269° West 389 448 36,000  Level FlightAware
08:18PM 43.0340 -81.4010 269° West 390 449 36,000  Level FlightAware
08:19PM 43.0320 -81.5140 269° West 391 450 36,000  Level FlightAware
08:20PM 43.0290 -81.6290 268° West 391 450 36,000  Level FlightAware
08:21PM 43.0270 -81.7260 268° West 391 450 36,000  Level FlightAware
08:21PM 43.0250 -81.8200 268° West 390 449 36,000  Level FlightAware
08:22PM 43.0230 -81.9330 269° West 388 447 36,000  Level FlightAware
08:23PM 43.0200 -82.0740 268° West 385 443 36,000  Level FlightAware
08:24PM 43.0170 -82.1710 268° West 385 443 36,000  Level FlightAware
08:24PM 43.0140 -82.2830 268° West 385 443 36,000  Level FlightAware
08:25PM 43.0110 -82.4020 268° West 386 444 36,000  Level FlightAware
08:26PM 43.0090 -82.4960 268° West 385 443 36,000  Level FlightAware
08:26PM 43.0060 -82.5920 268° West 385 443 36,000  Level FlightAware
08:27PM 43.0030 -82.7030 268° West 385 443 36,000  Level FlightAware
08:28PM 42.9990 -82.8230 267° West 385 443 36,000  Level FlightAware
08:29PM 42.9970 -82.8910 268° West 386 444 36,000  Level FlightAware
08:29PM 42.9930 -83.0120 267° West 386 444 36,000  Level FlightAware
08:30PM 42.9900 -83.1050 268° West 388 447 36,000  Level FlightAware
08:31PM 42.9860 -83.2090 267° West 390 449 36,000  Level FlightAware
08:32PM 42.9820 -83.3350 268° West 391 450 36,000  Level FlightAware
08:32PM 42.9800 -83.4080 268° West 393 452 36,000  Level FlightAware
08:33PM 42.9760 -83.5100 267° West 394 453 36,000  Level FlightAware
08:34PM 42.9710 -83.6330 267° West 394 453 36,000  Level FlightAware
08:34PM 42.9690 -83.6980 268° West 394 453 36,000  Level FlightAware
08:35PM 42.9570 -83.8540 264° West 395 455 36,000  Level FlightAware
08:36PM 42.9470 -83.9570 262° West 395 455 36,000  Level FlightAware
08:36PM 42.9360 -84.0680 262° West 394 453 36,000  Level FlightAware
08:37PM 42.9260 -84.1660 262° West 392 451 36,000 -480 Level FlightAware
08:38PM 42.9160 -84.2640 262° West 392 451 35,400 -1,320 Descending FlightAware
08:39PM 42.9060 -84.3720 263° West 393 452 34,200 -1,680 Descending FlightAware
08:39PM 42.8970 -84.4610 262° West 396 456 33,100 -1,560 Descending FlightAware
08:40PM 42.8840 -84.5850 262° West 395 455 32,000 -780 Descending FlightAware
08:41PM 42.8740 -84.6830 262° West 395 455 32,000  Level FlightAware
08:41PM 42.8640 -84.7800 262° West 394 453 32,000  Level FlightAware
08:42PM 42.8520 -84.8920 262° West 394 453 32,000  Level FlightAware
08:43PM 42.8420 -84.9910 262° West 395 455 32,000  Level FlightAware
08:43PM 42.8310 -85.1020 262° West 397 457 32,000  Level FlightAware
08:44PM 42.8200 -85.1980 261° West 399 459 32,000  Level FlightAware
08:45PM 42.8090 -85.3010 262° West 400 460 32,000 -660 Level FlightAware
08:46PM 42.7960 -85.4110 261° West 401 461 31,100 -1,860 Descending FlightAware
08:46PM 42.7840 -85.5110 261° West 397 457 29,400 -2,400 Descending FlightAware
08:47PM 42.7650 -85.6190 257° West 387 445 27,700 -2,220 Descending FlightAware
08:48PM 42.7480 -85.7130 256° West 382 440 26,300 -1,800 Descending FlightAware
08:48PM 42.7290 -85.8170 256° West 381 438 25,200 -1,560 Descending FlightAware
08:49PM 42.7120 -85.9100 256° West 381 438 24,100 -1,620 Descending FlightAware
08:50PM 42.6960 -85.9980 256° West 379 436 23,100 -1,560 Descending FlightAware
08:50PM 42.6770 -86.1040 256° West 375 432 21,900 -1,680 Descending FlightAware
08:51PM 42.6590 -86.1980 255° West 379 436 20,800 -1,620 Descending FlightAware
08:52PM 42.6430 -86.2880 256° West 378 435 19,800 -1,380 Descending FlightAware
08:53PM 42.6230 -86.3930 256° West 373 429 18,900 -1,320 Descending FlightAware
08:53PM 42.6070 -86.4810 256° West 370 426 18,000 -1,200 Descending FlightAware
08:54PM 42.5880 -86.5780 255° West 367 422 17,200 -1,200 Descending FlightAware
08:55PM 42.5720 -86.6670 256° West 363 418 16,300 -1,320 Descending FlightAware
08:55PM 42.5520 -86.7560 253° West 358 412 15,500 -600 Descending FlightAware
08:56PM 42.5280 -86.8400 249° West 358 412 15,500  Level FlightAware
08:57PM 42.5080 -86.9110 249° West 358 412 15,500 -1,440 Level FlightAware
08:58PM 42.4780 -87.0270 251° West 343 395 13,400 -1,260 Descending FlightAware
08:58PM 42.4540 -87.1130 249° West 343 395 13,400 -1,440 Level FlightAware
08:59PM 42.4330 -87.1940 251° West 293 337 11,300 -1,980 Descending FlightAware
09:00PM 42.4120 -87.2680 249° West 291 335 10,600 -960 Descending FlightAware
09:00PM 42.3930 -87.3370 250° West 281 323 10,000 -1,200 Descending FlightAware
09:01PM 42.3860 -87.3630 250° West 285 328 9,500 -1,500 Descending FlightAware
09:01PM 42.3730 -87.4100 249° West 278 320 8,900 -1,140 Descending FlightAware
09:02PM 42.3620 -87.4500 250° West 268 308 8,500 -1,320 Descending FlightAware
09:02PM 42.3490 -87.4970 249° West 269 310 7,700 -1,560 Descending FlightAware
09:03PM 42.3360 -87.5340 245° Southwest 263 303 7,100 -1,080 Descending FlightAware
09:03PM 42.3220 -87.5510 222° Southwest 255 293 7,000  Descending FlightAware
09:03PM 42.2940 -87.5810 218° Southwest 254 292 7,100 60 Climbing FlightAware
09:04PM 42.2710 -87.6060 219° Southwest 258 297 7,100  Level FlightAware
09:04PM 42.2420 -87.6370 218° Southwest 259 298 7,100  Level FlightAware
09:05PM 42.2200 -87.6600 218° Southwest 259 298 7,100  Level FlightAware
09:05PM 42.1910 -87.6900 217° Southwest 258 297 7,100 -120 Level FlightAware
09:06PM 42.1640 -87.7190 219° Southwest 231 266 7,000 -120 Descending FlightAware
09:06PM 42.1430 -87.7400 217° Southwest 220 253 7,000 60 Level FlightAware
09:07PM 42.1190 -87.7660 219° Southwest 218 251 7,100 60 Climbing FlightAware
09:07PM 42.0980 -87.7930 224° Southwest 219 252 7,100  Level FlightAware
09:07PM 42.0920 -87.8260 256° West 224 258 7,100  Level FlightAware
09:08PM 42.0920 -87.8570 270° West 222 255 7,100  Level FlightAware
09:08PM 42.0920 -87.8960 270° West 223 257 7,100  Level FlightAware
09:09PM 42.0920 -87.9300 270° West 224 258 7,100  Level FlightAware
09:09PM 42.0920 -87.9780 270° West 224 258 7,100  Level FlightAware
09:10PM 42.0920 -88.0220 270° West 225 259 7,100 -180 Level FlightAware
09:10PM 42.0920 -88.0730 270° West 210 242 6,900 -300 Descending FlightAware
09:11PM 42.0920 -88.1030 270° West 190 219 6,800 -720 Descending FlightAware
09:11PM 42.0910 -88.1450 268° West 179 206 6,200 -1,020 Descending FlightAware
09:12PM 42.0910 -88.1730 270° West 178 205 5,800 -1,140 Descending FlightAware
09:12PM 42.0910 -88.2060 270° West 178 205 5,200 -1,320 Descending FlightAware
09:13PM 42.0820 -88.2350 247° West 169 194 4,500 -1,200 Descending FlightAware
09:13PM 42.0750 -88.2390 203° Southwest 166 191 4,400 -780 Descending FlightAware
09:14PM 42.0530 -88.2490 199° South 164 189 4,000 -360 Descending FlightAware
09:14PM 42.0360 -88.2570 199° South 167 192 4,100 60 Climbing FlightAware
09:14PM 42.0140 -88.2670 199° South 161 185 4,100  Level FlightAware
09:15PM 41.9920 -88.2660 178° South 161 185 4,100  Level FlightAware
09:15PM 41.9850 -88.2630 162° South 159 183 4,100  Level FlightAware
09:15PM 41.9780 -88.2510 128° Southeast 169 194 4,100  Level FlightAware
09:16PM 41.9730 -88.2200 102° East 169 194 4,100  Level FlightAware
09:16PM 41.9700 -88.2050 105° East 168 193 4,100  Level FlightAware
09:17PM 41.9680 -88.1800 96° East 170 196 4,100 -420 Level FlightAware
09:17PM 41.9680 -88.1430 90° East 170 196 3,700 -720 Descending FlightAware
09:18PM 41.9680 -88.1180 90° East 164 189 3,400 -840 Descending FlightAware
09:18PM 41.9690 -88.0630 89° East 162 186 2,600 -900 Descending FlightAware
09:19PM 41.9690 -88.0350 90° East 155 178 2,200 -840 Descending FlightAware
09:19PM 41.9690 -88.0140 90° East 148 170 1,900 -720 Descending FlightAware
09:20PM 41.9690 -87.9760 90° East 136 157 1,400 -780 Descending FlightAware
09:20PM 41.9690 -87.9560 90° East 147 169 1,100 -780 Descending FlightAware
09:21PM 41.9690 -87.9250 90° East 149 171 700 -720 Descending FlightAware